sensor_id;sensor_type;location;lat;lon;timestamp;P1;durP1;ratioP1;P2;durP2;ratioP2
22995;SDS011;11664;49.774;8.650;2023-07-24T00:03:20;8.30;;;7.70;;
22995;SDS011;11664;49.774;8.650;2023-07-24T00:05:46;11.52;;;10.82;;
22995;SDS011;11664;49.774;8.650;2023-07-24T00:08:12;11.95;;;11.10;;
22995;SDS011;11664;49.774;8.650;2023-07-24T00:10:37;10.73;;;10.15;;
22995;SDS011;11664;49.774;8.650;2023-07-24T00:13:06;12.50;;;11.60;;
22995;SDS011;11664;49.774;8.650;2023-07-24T00:15:32;13.85;;;12.88;;
22995;SDS011;11664;49.774;8.650;2023-07-24T00:17:57;15.30;;;14.10;;
22995;SDS011;11664;49.774;8.650;2023-07-24T00:20:44;13.13;;;12.30;;
22995;SDS011;11664;49.774;8.650;2023-07-24T00:23:09;13.25;;;12.45;;
22995;SDS011;11664;49.774;8.650;2023-07-24T00:25:53;15.52;;;14.60;;
22995;SDS011;11664;49.774;8.650;2023-07-24T00:28:22;17.25;;;16.05;;
22995;SDS011;11664;49.774;8.650;2023-07-24T00:31:06;18.83;;;17.65;;
22995;SDS011;11664;49.774;8.650;2023-07-24T00:33:34;17.98;;;16.88;;
22995;SDS011;11664;49.774;8.650;2023-07-24T00:36:00;18.33;;;17.02;;
22995;SDS011;11664;49.774;8.650;2023-07-24T00:38:25;12.23;;;11.38;;
22995;SDS011;11664;49.774;8.650;2023-07-24T00:40:54;15.85;;;14.68;;
22995;SDS011;11664;49.774;8.650;2023-07-24T00:43:26;18.85;;;17.65;;
22995;SDS011;11664;49.774;8.650;2023-07-24T00:45:57;16.67;;;15.55;;
22995;SDS011;11664;49.774;8.650;2023-07-24T00:48:26;17.33;;;16.27;;
22995;SDS011;11664;49.774;8.650;2023-07-24T00:50:52;22.02;;;20.58;;
22995;SDS011;11664;49.774;8.650;2023-07-24T00:53:24;21.05;;;19.80;;
22995;SDS011;11664;49.774;8.650;2023-07-24T00:55:51;20.80;;;19.42;;
22995;SDS011;11664;49.774;8.650;2023-07-24T00:58:27;25.48;;;23.92;;
22995;SDS011;11664;49.774;8.650;2023-07-24T01:01:02;16.13;;;15.02;;
22995;SDS011;11664;49.774;8.650;2023-07-24T01:03:33;10.73;;;10.10;;
22995;SDS011;11664;49.774;8.650;2023-07-24T01:06:01;10.13;;;9.38;;
22995;SDS011;11664;49.774;8.650;2023-07-24T01:08:27;6.47;;;5.75;;
22995;SDS011;11664;49.774;8.650;2023-07-24T01:13:40;7.47;;;6.82;;
22995;SDS011;11664;49.774;8.650;2023-07-24T01:16:14;9.77;;;9.02;;
22995;SDS011;11664;49.774;8.650;2023-07-24T01:18:43;12.48;;;11.50;;
22995;SDS011;11664;49.774;8.650;2023-07-24T01:21:13;7.82;;;7.15;;
22995;SDS011;11664;49.774;8.650;2023-07-24T01:26:37;5.63;;;4.60;;
22995;SDS011;11664;49.774;8.650;2023-07-24T01:31:40;9.25;;;5.50;;
22995;SDS011;11664;49.774;8.650;2023-07-24T01:34:05;6.60;;;6.00;;
22995;SDS011;11664;49.774;8.650;2023-07-24T01:36:31;8.13;;;7.35;;
22995;SDS011;11664;49.774;8.650;2023-07-24T01:39:09;8.63;;;7.78;;
22995;SDS011;11664;49.774;8.650;2023-07-24T01:41:35;10.15;;;8.98;;
22995;SDS011;11664;49.774;8.650;2023-07-24T01:44:00;8.75;;;8.00;;
22995;SDS011;11664;49.774;8.650;2023-07-24T01:46:30;8.50;;;7.90;;
22995;SDS011;11664;49.774;8.650;2023-07-24T01:48:55;9.75;;;8.85;;
22995;SDS011;11664;49.774;8.650;2023-07-24T01:51:27;9.98;;;9.18;;
22995;SDS011;11664;49.774;8.650;2023-07-24T01:56:25;8.95;;;8.15;;
22995;SDS011;11664;49.774;8.650;2023-07-24T01:58:50;9.38;;;8.77;;
22995;SDS011;11664;49.774;8.650;2023-07-24T02:01:16;9.77;;;9.07;;
22995;SDS011;11664;49.774;8.650;2023-07-24T02:03:41;9.38;;;8.30;;
22995;SDS011;11664;49.774;8.650;2023-07-24T02:06:16;8.98;;;8.25;;
22995;SDS011;11664;49.774;8.650;2023-07-24T02:08:41;8.40;;;7.63;;
22995;SDS011;11664;49.774;8.650;2023-07-24T02:11:19;9.30;;;8.50;;
22995;SDS011;11664;49.774;8.650;2023-07-24T02:13:45;5.57;;;5.07;;
22995;SDS011;11664;49.774;8.650;2023-07-24T02:16:22;6.03;;;4.78;;
22995;SDS011;11664;49.774;8.650;2023-07-24T02:18:54;6.38;;;5.25;;
22995;SDS011;11664;49.774;8.650;2023-07-24T02:21:29;10.73;;;9.80;;
22995;SDS011;11664;49.774;8.650;2023-07-24T02:23:55;10.93;;;9.98;;
22995;SDS011;11664;49.774;8.650;2023-07-24T02:26:20;8.73;;;7.85;;
22995;SDS011;11664;49.774;8.650;2023-07-24T02:28:52;6.72;;;6.13;;
22995;SDS011;11664;49.774;8.650;2023-07-24T02:31:18;6.68;;;6.05;;
22995;SDS011;11664;49.774;8.650;2023-07-24T02:33:44;7.72;;;5.45;;
22995;SDS011;11664;49.774;8.650;2023-07-24T02:36:09;5.75;;;4.20;;
22995;SDS011;11664;49.774;8.650;2023-07-24T02:38:44;4.45;;;4.07;;
22995;SDS011;11664;49.774;8.650;2023-07-24T02:41:13;8.63;;;5.68;;
22995;SDS011;11664;49.774;8.650;2023-07-24T02:43:38;6.43;;;5.82;;
22995;SDS011;11664;49.774;8.650;2023-07-24T02:46:04;6.20;;;5.57;;
22995;SDS011;11664;49.774;8.650;2023-07-24T02:48:35;6.85;;;6.03;;
22995;SDS011;11664;49.774;8.650;2023-07-24T02:51:01;8.63;;;7.30;;
22995;SDS011;11664;49.774;8.650;2023-07-24T02:53:35;6.45;;;5.85;;
22995;SDS011;11664;49.774;8.650;2023-07-24T02:56:02;6.70;;;5.50;;
22995;SDS011;11664;49.774;8.650;2023-07-24T02:58:33;9.90;;;5.60;;
22995;SDS011;11664;49.774;8.650;2023-07-24T03:03:50;8.07;;;6.25;;
22995;SDS011;11664;49.774;8.650;2023-07-24T03:06:16;6.95;;;6.28;;
22995;SDS011;11664;49.774;8.650;2023-07-24T03:08:47;7.07;;;6.38;;
22995;SDS011;11664;49.774;8.650;2023-07-24T03:11:13;8.43;;;7.72;;
22995;SDS011;11664;49.774;8.650;2023-07-24T03:13:48;9.60;;;8.80;;
22995;SDS011;11664;49.774;8.650;2023-07-24T03:16:13;10.05;;;9.32;;
22995;SDS011;11664;49.774;8.650;2023-07-24T03:18:45;9.60;;;8.82;;
22995;SDS011;11664;49.774;8.650;2023-07-24T03:21:10;7.93;;;7.13;;
22995;SDS011;11664;49.774;8.650;2023-07-24T03:23:36;10.98;;;9.98;;
22995;SDS011;11664;49.774;8.650;2023-07-24T03:26:01;14.60;;;13.50;;
22995;SDS011;11664;49.774;8.650;2023-07-24T03:28:33;14.38;;;13.30;;
22995;SDS011;11664;49.774;8.650;2023-07-24T03:31:02;13.80;;;12.90;;
22995;SDS011;11664;49.774;8.650;2023-07-24T03:33:27;12.63;;;11.52;;
22995;SDS011;11664;49.774;8.650;2023-07-24T03:35:53;11.23;;;10.32;;
22995;SDS011;11664;49.774;8.650;2023-07-24T03:38:18;8.07;;;7.38;;
22995;SDS011;11664;49.774;8.650;2023-07-24T03:40:50;7.30;;;6.70;;
22995;SDS011;11664;49.774;8.650;2023-07-24T03:43:22;9.32;;;7.60;;
22995;SDS011;11664;49.774;8.650;2023-07-24T03:45:47;8.52;;;7.75;;
22995;SDS011;11664;49.774;8.650;2023-07-24T03:48:13;9.23;;;8.45;;
22995;SDS011;11664;49.774;8.650;2023-07-24T03:50:40;13.45;;;12.43;;
22995;SDS011;11664;49.774;8.650;2023-07-24T03:53:05;14.35;;;13.23;;
22995;SDS011;11664;49.774;8.650;2023-07-24T03:55:31;13.70;;;12.73;;
22995;SDS011;11664;49.774;8.650;2023-07-24T03:57:56;14.35;;;13.40;;
22995;SDS011;11664;49.774;8.650;2023-07-24T04:00:25;14.60;;;13.52;;
22995;SDS011;11664;49.774;8.650;2023-07-24T04:03:05;15.45;;;14.38;;
22995;SDS011;11664;49.774;8.650;2023-07-24T04:05:31;11.48;;;10.57;;
22995;SDS011;11664;49.774;8.650;2023-07-24T04:08:06;13.18;;;12.20;;
22995;SDS011;11664;49.774;8.650;2023-07-24T04:10:37;15.60;;;14.45;;
22995;SDS011;11664;49.774;8.650;2023-07-24T04:13:03;13.63;;;12.73;;
22995;SDS011;11664;49.774;8.650;2023-07-24T04:15:36;11.27;;;10.40;;
22995;SDS011;11664;49.774;8.650;2023-07-24T04:18:03;11.55;;;10.52;;
22995;SDS011;11664;49.774;8.650;2023-07-24T04:20:31;9.88;;;8.95;;
22995;SDS011;11664;49.774;8.650;2023-07-24T04:23:15;9.77;;;8.93;;
22995;SDS011;11664;49.774;8.650;2023-07-24T04:25:41;9.95;;;9.13;;
22995;SDS011;11664;49.774;8.650;2023-07-24T04:30:59;9.70;;;8.90;;
22995;SDS011;11664;49.774;8.650;2023-07-24T04:33:33;10.23;;;9.52;;
22995;SDS011;11664;49.774;8.650;2023-07-24T04:36:02;10.10;;;9.35;;
22995;SDS011;11664;49.774;8.650;2023-07-24T04:38:30;9.60;;;8.90;;
22995;SDS011;11664;49.774;8.650;2023-07-24T04:41:02;9.57;;;8.90;;
22995;SDS011;11664;49.774;8.650;2023-07-24T04:43:34;10.23;;;9.38;;
22995;SDS011;11664;49.774;8.650;2023-07-24T04:45:59;9.60;;;8.82;;
22995;SDS011;11664;49.774;8.650;2023-07-24T04:48:25;10.65;;;9.73;;
22995;SDS011;11664;49.774;8.650;2023-07-24T04:50:56;9.32;;;8.68;;
22995;SDS011;11664;49.774;8.650;2023-07-24T04:53:28;7.55;;;6.88;;
22995;SDS011;11664;49.774;8.650;2023-07-24T04:55:57;6.55;;;6.03;;
22995;SDS011;11664;49.774;8.650;2023-07-24T04:58:28;7.13;;;6.38;;
22995;SDS011;11664;49.774;8.650;2023-07-24T05:00:57;8.25;;;7.07;;
22995;SDS011;11664;49.774;8.650;2023-07-24T05:03:32;13.40;;;12.40;;
22995;SDS011;11664;49.774;8.650;2023-07-24T05:06:10;13.45;;;12.45;;
22995;SDS011;11664;49.774;8.650;2023-07-24T05:08:36;7.72;;;7.03;;
22995;SDS011;11664;49.774;8.650;2023-07-24T05:11:04;8.63;;;7.18;;
22995;SDS011;11664;49.774;8.650;2023-07-24T05:13:42;11.30;;;10.30;;
22995;SDS011;11664;49.774;8.650;2023-07-24T05:16:11;12.07;;;11.18;;
22995;SDS011;11664;49.774;8.650;2023-07-24T05:18:45;9.15;;;8.35;;
22995;SDS011;11664;49.774;8.650;2023-07-24T05:21:11;14.82;;;13.43;;
22995;SDS011;11664;49.774;8.650;2023-07-24T05:23:46;15.55;;;14.55;;
22995;SDS011;11664;49.774;8.650;2023-07-24T05:26:11;12.35;;;11.45;;
22995;SDS011;11664;49.774;8.650;2023-07-24T05:28:40;16.60;;;15.32;;
22995;SDS011;11664;49.774;8.650;2023-07-24T05:31:08;14.60;;;13.57;;
22995;SDS011;11664;49.774;8.650;2023-07-24T05:33:49;17.80;;;16.55;;
22995;SDS011;11664;49.774;8.650;2023-07-24T05:36:23;17.33;;;16.15;;
22995;SDS011;11664;49.774;8.650;2023-07-24T05:38:52;18.95;;;17.67;;
22995;SDS011;11664;49.774;8.650;2023-07-24T05:41:24;21.05;;;19.77;;
22995;SDS011;11664;49.774;8.650;2023-07-24T05:43:53;29.17;;;27.27;;
22995;SDS011;11664;49.774;8.650;2023-07-24T05:46:21;34.92;;;32.83;;
22995;SDS011;11664;49.774;8.650;2023-07-24T05:48:52;32.30;;;30.35;;
22995;SDS011;11664;49.774;8.650;2023-07-24T05:51:18;25.63;;;23.92;;
22995;SDS011;11664;49.774;8.650;2023-07-24T05:59:48;32.75;;;30.75;;
22995;SDS011;11664;49.774;8.650;2023-07-24T06:02:15;22.13;;;20.75;;
22995;SDS011;11664;49.774;8.650;2023-07-24T06:04:58;23.80;;;22.23;;
22995;SDS011;11664;49.774;8.650;2023-07-24T06:07:24;29.48;;;27.65;;
22995;SDS011;11664;49.774;8.650;2023-07-24T06:09:55;31.20;;;29.27;;
22995;SDS011;11664;49.774;8.650;2023-07-24T06:15:11;43.70;;;41.05;;
22995;SDS011;11664;49.774;8.650;2023-07-24T06:17:39;44.53;;;41.95;;
22995;SDS011;11664;49.774;8.650;2023-07-24T06:20:11;44.28;;;41.60;;
22995;SDS011;11664;49.774;8.650;2023-07-24T06:22:46;34.58;;;32.38;;
22995;SDS011;11664;49.774;8.650;2023-07-24T06:25:14;32.00;;;30.08;;
22995;SDS011;11664;49.774;8.650;2023-07-24T06:27:46;35.40;;;33.20;;
22995;SDS011;11664;49.774;8.650;2023-07-24T06:30:14;34.97;;;32.40;;
22995;SDS011;11664;49.774;8.650;2023-07-24T06:32:42;34.45;;;32.15;;
22995;SDS011;11664;49.774;8.650;2023-07-24T06:35:08;34.38;;;32.13;;
22995;SDS011;11664;49.774;8.650;2023-07-24T06:37:40;32.10;;;30.17;;
22995;SDS011;11664;49.774;8.650;2023-07-24T06:40:06;21.70;;;20.33;;
22995;SDS011;11664;49.774;8.650;2023-07-24T06:42:32;21.48;;;20.08;;
22995;SDS011;11664;49.774;8.650;2023-07-24T06:47:45;19.75;;;18.42;;
22995;SDS011;11664;49.774;8.650;2023-07-24T06:50:14;19.13;;;16.80;;
22995;SDS011;11664;49.774;8.650;2023-07-24T06:52:46;16.55;;;15.35;;
22995;SDS011;11664;49.774;8.650;2023-07-24T06:55:17;26.80;;;25.20;;
22995;SDS011;11664;49.774;8.650;2023-07-24T06:57:55;31.60;;;28.88;;
22995;SDS011;11664;49.774;8.650;2023-07-24T07:00:35;26.17;;;24.45;;
22995;SDS011;11664;49.774;8.650;2023-07-24T07:03:04;15.57;;;14.50;;
22995;SDS011;11664;49.774;8.650;2023-07-24T07:05:48;11.73;;;10.73;;
22995;SDS011;11664;49.774;8.650;2023-07-24T07:08:23;8.95;;;7.13;;
22995;SDS011;11664;49.774;8.650;2023-07-24T07:10:56;7.60;;;6.28;;
22995;SDS011;11664;49.774;8.650;2023-07-24T07:13:22;7.13;;;5.68;;
22995;SDS011;11664;49.774;8.650;2023-07-24T07:15:51;5.95;;;5.38;;
22995;SDS011;11664;49.774;8.650;2023-07-24T07:18:25;9.88;;;7.32;;
22995;SDS011;11664;49.774;8.650;2023-07-24T07:20:54;8.88;;;7.97;;
22995;SDS011;11664;49.774;8.650;2023-07-24T07:23:20;9.70;;;8.88;;
22995;SDS011;11664;49.774;8.650;2023-07-24T07:25:46;10.88;;;9.00;;
22995;SDS011;11664;49.774;8.650;2023-07-24T07:28:21;9.85;;;8.15;;
22995;SDS011;11664;49.774;8.650;2023-07-24T07:30:50;10.90;;;7.65;;
22995;SDS011;11664;49.774;8.650;2023-07-24T07:33:25;7.93;;;7.13;;
22995;SDS011;11664;49.774;8.650;2023-07-24T07:35:57;8.00;;;6.63;;
22995;SDS011;11664;49.774;8.650;2023-07-24T07:38:37;9.35;;;7.07;;
22995;SDS011;11664;49.774;8.650;2023-07-24T07:41:06;9.10;;;6.20;;
22995;SDS011;11664;49.774;8.650;2023-07-24T07:43:35;8.40;;;6.95;;
22995;SDS011;11664;49.774;8.650;2023-07-24T07:46:01;11.07;;;5.85;;
22995;SDS011;11664;49.774;8.650;2023-07-24T07:48:33;11.15;;;10.07;;
22995;SDS011;11664;49.774;8.650;2023-07-24T07:50:59;11.43;;;10.40;;
22995;SDS011;11664;49.774;8.650;2023-07-24T07:53:27;10.63;;;9.63;;
22995;SDS011;11664;49.774;8.650;2023-07-24T07:55:59;11.30;;;10.13;;
22995;SDS011;11664;49.774;8.650;2023-07-24T07:58:25;13.88;;;12.00;;
22995;SDS011;11664;49.774;8.650;2023-07-24T08:00:57;11.60;;;10.43;;
22995;SDS011;11664;49.774;8.650;2023-07-24T08:03:28;10.65;;;9.85;;
22995;SDS011;11664;49.774;8.650;2023-07-24T08:05:57;10.23;;;9.05;;
22995;SDS011;11664;49.774;8.650;2023-07-24T08:08:26;12.98;;;11.70;;
22995;SDS011;11664;49.774;8.650;2023-07-24T08:10:51;10.50;;;9.60;;
22995;SDS011;11664;49.774;8.650;2023-07-24T08:13:17;9.68;;;8.77;;
22995;SDS011;11664;49.774;8.650;2023-07-24T08:15:43;14.15;;;11.43;;
22995;SDS011;11664;49.774;8.650;2023-07-24T08:18:17;11.20;;;9.98;;
22995;SDS011;11664;49.774;8.650;2023-07-24T08:20:42;15.23;;;13.93;;
22995;SDS011;11664;49.774;8.650;2023-07-24T08:23:08;12.93;;;11.73;;
22995;SDS011;11664;49.774;8.650;2023-07-24T08:25:37;11.60;;;10.50;;
22995;SDS011;11664;49.774;8.650;2023-07-24T08:28:02;12.85;;;11.85;;
22995;SDS011;11664;49.774;8.650;2023-07-24T08:30:43;11.25;;;9.93;;
22995;SDS011;11664;49.774;8.650;2023-07-24T08:33:08;13.25;;;12.15;;
22995;SDS011;11664;49.774;8.650;2023-07-24T08:35:40;10.82;;;9.82;;
22995;SDS011;11664;49.774;8.650;2023-07-24T08:38:05;13.73;;;11.65;;
22995;SDS011;11664;49.774;8.650;2023-07-24T08:40:31;15.80;;;14.30;;
22995;SDS011;11664;49.774;8.650;2023-07-24T08:42:56;15.55;;;14.20;;
22995;SDS011;11664;49.774;8.650;2023-07-24T08:45:22;13.40;;;12.00;;
22995;SDS011;11664;49.774;8.650;2023-07-24T08:47:49;12.63;;;11.40;;
22995;SDS011;11664;49.774;8.650;2023-07-24T08:50:16;10.52;;;9.70;;
22995;SDS011;11664;49.774;8.650;2023-07-24T08:52:42;11.95;;;10.95;;
22995;SDS011;11664;49.774;8.650;2023-07-24T08:55:09;12.10;;;10.98;;
22995;SDS011;11664;49.774;8.650;2023-07-24T08:57:42;15.45;;;14.13;;
22995;SDS011;11664;49.774;8.650;2023-07-24T09:00:07;14.68;;;13.18;;
22995;SDS011;11664;49.774;8.650;2023-07-24T09:02:36;13.65;;;12.48;;
22995;SDS011;11664;49.774;8.650;2023-07-24T09:05:02;10.65;;;9.75;;
22995;SDS011;11664;49.774;8.650;2023-07-24T09:07:29;19.20;;;17.77;;
22995;SDS011;11664;49.774;8.650;2023-07-24T09:09:55;21.58;;;20.08;;
22995;SDS011;11664;49.774;8.650;2023-07-24T09:15:04;25.42;;;23.42;;
22995;SDS011;11664;49.774;8.650;2023-07-24T09:17:36;26.70;;;25.05;;
22995;SDS011;11664;49.774;8.650;2023-07-24T09:20:13;15.82;;;14.45;;
22995;SDS011;11664;49.774;8.650;2023-07-24T09:22:47;10.63;;;9.65;;
22995;SDS011;11664;49.774;8.650;2023-07-24T09:25:13;10.52;;;9.43;;
22995;SDS011;11664;49.774;8.650;2023-07-24T09:27:39;12.02;;;11.05;;
22995;SDS011;11664;49.774;8.650;2023-07-24T09:30:11;54.70;;;51.40;;
22995;SDS011;11664;49.774;8.650;2023-07-24T09:33:09;20.52;;;19.08;;
22995;SDS011;11664;49.774;8.650;2023-07-24T09:35:37;10.90;;;9.88;;
22995;SDS011;11664;49.774;8.650;2023-07-24T09:40:28;11.85;;;10.95;;
22995;SDS011;11664;49.774;8.650;2023-07-24T09:42:53;9.98;;;9.02;;
22995;SDS011;11664;49.774;8.650;2023-07-24T09:45:19;10.13;;;7.20;;
22995;SDS011;11664;49.774;8.650;2023-07-24T09:47:45;8.98;;;8.10;;
22995;SDS011;11664;49.774;8.650;2023-07-24T09:50:11;7.78;;;7.03;;
22995;SDS011;11664;49.774;8.650;2023-07-24T09:52:36;9.75;;;8.75;;
22995;SDS011;11664;49.774;8.650;2023-07-24T09:55:21;12.32;;;11.23;;
22995;SDS011;11664;49.774;8.650;2023-07-24T09:57:49;10.63;;;9.20;;
22995;SDS011;11664;49.774;8.650;2023-07-24T10:00:18;8.25;;;7.40;;
22995;SDS011;11664;49.774;8.650;2023-07-24T10:02:45;11.60;;;10.40;;
22995;SDS011;11664;49.774;8.650;2023-07-24T10:05:11;16.23;;;14.85;;
22995;SDS011;11664;49.774;8.650;2023-07-24T10:07:37;13.75;;;12.43;;
22995;SDS011;11664;49.774;8.650;2023-07-24T10:10:03;15.88;;;14.73;;
22995;SDS011;11664;49.774;8.650;2023-07-24T10:12:30;10.95;;;9.85;;
22995;SDS011;11664;49.774;8.650;2023-07-24T10:14:57;11.73;;;9.43;;
22995;SDS011;11664;49.774;8.650;2023-07-24T10:17:36;7.57;;;6.50;;
22995;SDS011;11664;49.774;8.650;2023-07-24T10:22:32;8.70;;;8.00;;
22995;SDS011;11664;49.774;8.650;2023-07-24T10:24:58;10.27;;;9.43;;
22995;SDS011;11664;49.774;8.650;2023-07-24T10:27:26;9.15;;;7.65;;
22995;SDS011;11664;49.774;8.650;2023-07-24T10:30:05;7.70;;;6.95;;
22995;SDS011;11664;49.774;8.650;2023-07-24T10:32:32;9.00;;;8.15;;
22995;SDS011;11664;49.774;8.650;2023-07-24T10:34:59;11.48;;;10.48;;
22995;SDS011;11664;49.774;8.650;2023-07-24T10:37:35;10.02;;;8.15;;
22995;SDS011;11664;49.774;8.650;2023-07-24T10:40:01;9.23;;;8.30;;
22995;SDS011;11664;49.774;8.650;2023-07-24T10:42:29;8.55;;;7.72;;
22995;SDS011;11664;49.774;8.650;2023-07-24T10:45:08;6.53;;;5.85;;
22995;SDS011;11664;49.774;8.650;2023-07-24T10:47:38;15.52;;;14.30;;
22995;SDS011;11664;49.774;8.650;2023-07-24T10:50:21;14.48;;;12.43;;
22995;SDS011;11664;49.774;8.650;2023-07-24T10:52:52;11.40;;;10.30;;
22995;SDS011;11664;49.774;8.650;2023-07-24T10:55:28;18.25;;;17.02;;
22995;SDS011;11664;49.774;8.650;2023-07-24T10:57:56;12.07;;;10.95;;
22995;SDS011;11664;49.774;8.650;2023-07-24T11:00:30;21.17;;;19.73;;
22995;SDS011;11664;49.774;8.650;2023-07-24T11:03:02;30.50;;;28.58;;
22995;SDS011;11664;49.774;8.650;2023-07-24T11:05:35;25.05;;;23.25;;
22995;SDS011;11664;49.774;8.650;2023-07-24T11:08:14;21.98;;;20.55;;
22995;SDS011;11664;49.774;8.650;2023-07-24T11:10:44;22.65;;;21.20;;
22995;SDS011;11664;49.774;8.650;2023-07-24T11:13:15;17.95;;;16.63;;
22995;SDS011;11664;49.774;8.650;2023-07-24T11:15:42;18.60;;;17.27;;
22995;SDS011;11664;49.774;8.650;2023-07-24T11:18:07;20.08;;;18.52;;
22995;SDS011;11664;49.774;8.650;2023-07-24T11:20:36;21.48;;;19.90;;
22995;SDS011;11664;49.774;8.650;2023-07-24T11:23:12;15.10;;;13.88;;
22995;SDS011;11664;49.774;8.650;2023-07-24T11:25:38;17.98;;;16.75;;
22995;SDS011;11664;49.774;8.650;2023-07-24T11:28:11;16.20;;;14.45;;
22995;SDS011;11664;49.774;8.650;2023-07-24T11:30:38;40.03;;;37.67;;
22995;SDS011;11664;49.774;8.650;2023-07-24T11:33:05;31.92;;;29.98;;
22995;SDS011;11664;49.774;8.650;2023-07-24T11:35:32;25.85;;;24.15;;
22995;SDS011;11664;49.774;8.650;2023-07-24T11:38:00;19.08;;;17.85;;
22995;SDS011;11664;49.774;8.650;2023-07-24T11:40:33;8.15;;;7.40;;
22995;SDS011;11664;49.774;8.650;2023-07-24T11:43:00;7.97;;;7.18;;
22995;SDS011;11664;49.774;8.650;2023-07-24T11:45:27;11.05;;;5.90;;
22995;SDS011;11664;49.774;8.650;2023-07-24T11:47:52;6.50;;;5.88;;
22995;SDS011;11664;49.774;8.650;2023-07-24T11:50:19;8.20;;;7.43;;
22995;SDS011;11664;49.774;8.650;2023-07-24T11:52:47;13.15;;;5.05;;
22995;SDS011;11664;49.774;8.650;2023-07-24T11:55:15;6.70;;;5.55;;
22995;SDS011;11664;49.774;8.650;2023-07-24T11:57:42;6.68;;;6.07;;
22995;SDS011;11664;49.774;8.650;2023-07-24T12:00:18;9.18;;;7.07;;
22995;SDS011;11664;49.774;8.650;2023-07-24T12:02:45;6.07;;;5.43;;
22995;SDS011;11664;49.774;8.650;2023-07-24T12:05:10;8.27;;;7.40;;
22995;SDS011;11664;49.774;8.650;2023-07-24T12:07:36;12.90;;;12.00;;
22995;SDS011;11664;49.774;8.650;2023-07-24T12:10:05;13.20;;;12.30;;
22995;SDS011;11664;49.774;8.650;2023-07-24T12:12:38;13.23;;;12.00;;
22995;SDS011;11664;49.774;8.650;2023-07-24T12:15:11;21.17;;;19.73;;
22995;SDS011;11664;49.774;8.650;2023-07-24T12:17:37;17.92;;;16.67;;
22995;SDS011;11664;49.774;8.650;2023-07-24T12:20:03;23.90;;;22.30;;
22995;SDS011;11664;49.774;8.650;2023-07-24T12:22:31;15.10;;;14.00;;
22995;SDS011;11664;49.774;8.650;2023-07-24T12:24:59;16.52;;;13.15;;
22995;SDS011;11664;49.774;8.650;2023-07-24T12:27:44;32.70;;;30.55;;
22995;SDS011;11664;49.774;8.650;2023-07-24T12:30:10;8.93;;;8.23;;
22995;SDS011;11664;49.774;8.650;2023-07-24T12:32:36;8.30;;;6.38;;
22995;SDS011;11664;49.774;8.650;2023-07-24T12:35:04;15.65;;;14.45;;
22995;SDS011;11664;49.774;8.650;2023-07-24T12:37:30;14.15;;;13.02;;
22995;SDS011;11664;49.774;8.650;2023-07-24T12:39:56;11.10;;;10.25;;
22995;SDS011;11664;49.774;8.650;2023-07-24T12:42:22;13.40;;;12.10;;
22995;SDS011;11664;49.774;8.650;2023-07-24T12:44:48;10.23;;;9.13;;
22995;SDS011;11664;49.774;8.650;2023-07-24T12:47:14;9.10;;;7.07;;
22995;SDS011;11664;49.774;8.650;2023-07-24T12:49:39;8.30;;;6.75;;
22995;SDS011;11664;49.774;8.650;2023-07-24T12:52:05;8.10;;;7.13;;
22995;SDS011;11664;49.774;8.650;2023-07-24T12:54:32;7.63;;;7.03;;
22995;SDS011;11664;49.774;8.650;2023-07-24T12:56:58;10.75;;;9.68;;
22995;SDS011;11664;49.774;8.650;2023-07-24T12:59:23;7.20;;;6.50;;
22995;SDS011;11664;49.774;8.650;2023-07-24T13:01:49;8.65;;;7.95;;
22995;SDS011;11664;49.774;8.650;2023-07-24T13:04:14;9.38;;;8.43;;
22995;SDS011;11664;49.774;8.650;2023-07-24T13:06:40;7.93;;;7.13;;
22995;SDS011;11664;49.774;8.650;2023-07-24T13:09:07;6.72;;;6.03;;
22995;SDS011;11664;49.774;8.650;2023-07-24T13:11:32;14.38;;;6.68;;
22995;SDS011;11664;49.774;8.650;2023-07-24T13:13:58;9.75;;;8.70;;
22995;SDS011;11664;49.774;8.650;2023-07-24T13:16:24;8.10;;;6.15;;
22995;SDS011;11664;49.774;8.650;2023-07-24T13:18:49;11.32;;;7.63;;
22995;SDS011;11664;49.774;8.650;2023-07-24T13:21:15;8.95;;;5.72;;
22995;SDS011;11664;49.774;8.650;2023-07-24T13:23:41;8.57;;;6.03;;
22995;SDS011;11664;49.774;8.650;2023-07-24T13:26:07;9.18;;;8.35;;
22995;SDS011;11664;49.774;8.650;2023-07-24T13:28:35;9.63;;;8.43;;
22995;SDS011;11664;49.774;8.650;2023-07-24T13:31:10;18.45;;;9.77;;
22995;SDS011;11664;49.774;8.650;2023-07-24T13:33:37;8.93;;;8.02;;
22995;SDS011;11664;49.774;8.650;2023-07-24T13:36:03;17.77;;;11.32;;
22995;SDS011;11664;49.774;8.650;2023-07-24T13:38:30;22.42;;;8.50;;
22995;SDS011;11664;49.774;8.650;2023-07-24T13:40:55;9.80;;;7.80;;
22995;SDS011;11664;49.774;8.650;2023-07-24T13:43:21;14.93;;;11.80;;
22995;SDS011;11664;49.774;8.650;2023-07-24T13:45:46;13.30;;;6.70;;
22995;SDS011;11664;49.774;8.650;2023-07-24T13:48:12;22.83;;;11.07;;
22995;SDS011;11664;49.774;8.650;2023-07-24T13:50:37;17.05;;;15.90;;
22995;SDS011;11664;49.774;8.650;2023-07-24T13:53:03;16.63;;;15.02;;
22995;SDS011;11664;49.774;8.650;2023-07-24T13:55:28;23.85;;;22.33;;
22995;SDS011;11664;49.774;8.650;2023-07-24T13:57:54;23.23;;;21.67;;
22995;SDS011;11664;49.774;8.650;2023-07-24T14:00:19;23.95;;;22.27;;
22995;SDS011;11664;49.774;8.650;2023-07-24T14:02:45;12.85;;;11.88;;
22995;SDS011;11664;49.774;8.650;2023-07-24T14:05:10;18.17;;;15.05;;
22995;SDS011;11664;49.774;8.650;2023-07-24T14:07:36;17.67;;;16.30;;
22995;SDS011;11664;49.774;8.650;2023-07-24T14:10:01;11.90;;;10.90;;
22995;SDS011;11664;49.774;8.650;2023-07-24T14:12:27;12.80;;;11.65;;
22995;SDS011;11664;49.774;8.650;2023-07-24T14:14:52;13.93;;;12.52;;
22995;SDS011;11664;49.774;8.650;2023-07-24T14:17:18;9.68;;;8.77;;
22995;SDS011;11664;49.774;8.650;2023-07-24T14:19:44;11.90;;;10.88;;
22995;SDS011;11664;49.774;8.650;2023-07-24T14:22:10;12.32;;;10.90;;
22995;SDS011;11664;49.774;8.650;2023-07-24T14:24:35;10.80;;;9.27;;
22995;SDS011;11664;49.774;8.650;2023-07-24T14:27:01;12.05;;;11.02;;
22995;SDS011;11664;49.774;8.650;2023-07-24T14:29:26;14.40;;;12.73;;
22995;SDS011;11664;49.774;8.650;2023-07-24T14:31:52;16.25;;;14.98;;
22995;SDS011;11664;49.774;8.650;2023-07-24T14:34:17;15.68;;;14.48;;
22995;SDS011;11664;49.774;8.650;2023-07-24T14:36:43;13.50;;;9.35;;
22995;SDS011;11664;49.774;8.650;2023-07-24T14:39:08;11.73;;;10.68;;
22995;SDS011;11664;49.774;8.650;2023-07-24T14:41:34;12.05;;;8.13;;
22995;SDS011;11664;49.774;8.650;2023-07-24T14:44:00;12.25;;;11.35;;
22995;SDS011;11664;49.774;8.650;2023-07-24T14:46:25;17.88;;;16.58;;
22995;SDS011;11664;49.774;8.650;2023-07-24T14:48:51;8.77;;;7.97;;
22995;SDS011;11664;49.774;8.650;2023-07-24T14:51:17;8.25;;;7.55;;
22995;SDS011;11664;49.774;8.650;2023-07-24T14:53:42;7.82;;;7.13;;
22995;SDS011;11664;49.774;8.650;2023-07-24T14:56:08;7.90;;;7.25;;
22995;SDS011;11664;49.774;8.650;2023-07-24T14:58:33;6.85;;;6.35;;
22995;SDS011;11664;49.774;8.650;2023-07-24T15:00:59;8.00;;;7.30;;
22995;SDS011;11664;49.774;8.650;2023-07-24T15:03:24;7.10;;;6.55;;
22995;SDS011;11664;49.774;8.650;2023-07-24T15:05:50;8.10;;;7.50;;
22995;SDS011;11664;49.774;8.650;2023-07-24T15:08:16;7.93;;;7.20;;
22995;SDS011;11664;49.774;8.650;2023-07-24T15:10:42;7.50;;;6.90;;
22995;SDS011;11664;49.774;8.650;2023-07-24T15:13:11;7.97;;;7.18;;
22995;SDS011;11664;49.774;8.650;2023-07-24T15:15:38;7.78;;;6.93;;
22995;SDS011;11664;49.774;8.650;2023-07-24T15:18:04;8.77;;;6.80;;
22995;SDS011;11664;49.774;8.650;2023-07-24T15:20:29;5.97;;;5.40;;